Terminal Aerodrome Forecast
Issued by NWS

Home | Current Version | Previous Version | Text Only | Print | Product List | Glossary On
Versions: 1 2 3 4 5 6 7 8 9 10 11 12 13 14 15 16 17 18 19 20 21 22 23 24 25 26 27
000
FTUS46 KMFR 091739
TAFRBG
TAF
KRBG 091739Z 0918/1018 00000KT P6SM OVC002
     FM092100 VRB03KT P6SM SCT007
     FM092200 VRB03KT P6SM SCT250
     FM100700 00000KT P6SM OVC003=

USA.gov is the U.S. government's official web portal to all federal, state and local government web resources and services.